createdAt,value
2018-09-22T00:01:08.270Z,99.90
2018-09-22T00:03:37.658Z,99.90
2018-09-22T00:06:06.845Z,99.90
2018-09-22T00:08:36.203Z,99.90
2018-09-22T00:11:05.349Z,99.90
2018-09-22T00:13:34.757Z,99.90
2018-09-22T00:16:03.994Z,99.90
2018-09-22T00:18:33.292Z,99.90
2018-09-22T00:21:02.446Z,99.90
2018-09-22T00:23:31.646Z,99.90
2018-09-22T00:26:00.838Z,99.90
2018-09-22T00:28:29.991Z,99.90
2018-09-22T00:30:59.131Z,99.90
2018-09-22T00:33:28.459Z,99.90
2018-09-22T00:35:57.762Z,99.90
2018-09-22T00:38:26.933Z,99.90
2018-09-22T00:40:56.103Z,99.90
2018-09-22T00:43:25.293Z,99.90
2018-09-22T00:45:54.398Z,99.90
2018-09-22T00:48:23.575Z,99.90
2018-09-22T00:50:52.779Z,99.90
2018-09-22T00:53:22.117Z,99.90
2018-09-22T00:55:51.223Z,99.90
2018-09-22T00:58:20.387Z,99.90
2018-09-22T01:00:49.459Z,99.90
2018-09-22T01:03:18.586Z,99.90
2018-09-22T01:05:47.747Z,99.90
2018-09-22T01:08:16.879Z,99.90
2018-09-22T01:10:46.259Z,99.90
2018-09-22T01:13:15.343Z,99.90
2018-09-22T01:15:44.600Z,99.90
2018-09-22T01:18:13.693Z,99.90
2018-09-22T01:20:42.786Z,99.90
2018-09-22T01:23:11.889Z,99.90
2018-09-22T01:25:41.016Z,99.90
2018-09-22T01:28:10.182Z,99.90
2018-09-22T01:30:39.298Z,99.90
2018-09-22T01:33:08.373Z,99.90
2018-09-22T01:35:37.506Z,99.90
2018-09-22T01:38:06.613Z,99.90
2018-09-22T01:40:35.731Z,99.90
2018-09-22T01:43:04.867Z,99.90
2018-09-22T01:45:34.003Z,99.90
2018-09-22T01:48:03.184Z,99.90
2018-09-22T01:50:32.302Z,99.90
2018-09-22T01:53:01.428Z,99.90
2018-09-22T01:55:30.519Z,99.90
2018-09-22T01:57:59.602Z,99.90
2018-09-22T02:00:28.714Z,99.90
2018-09-22T02:02:58.585Z,99.90
2018-09-22T02:05:27.727Z,99.90
2018-09-22T02:07:56.822Z,99.90
2018-09-22T02:10:26.291Z,99.90
2018-09-22T02:12:55.438Z,99.90
2018-09-22T02:15:24.563Z,99.90
2018-09-22T02:17:53.698Z,99.90
2018-09-22T02:20:22.867Z,99.90
2018-09-22T02:22:51.948Z,99.90
2018-09-22T02:25:21.099Z,99.90
2018-09-22T02:27:50.212Z,99.90
2018-09-22T02:30:19.359Z,99.90
2018-09-22T02:32:49.303Z,99.90
2018-09-22T02:35:18.418Z,99.90
2018-09-22T02:37:47.493Z,99.90
2018-09-22T02:40:16.643Z,99.90
2018-09-22T02:42:45.884Z,99.90
2018-09-22T02:45:15.035Z,99.90
2018-09-22T02:47:44.148Z,99.90
2018-09-22T02:50:13.268Z,99.90
2018-09-22T02:52:42.437Z,99.90
2018-09-22T02:55:11.539Z,99.90
2018-09-22T02:57:40.705Z,99.90
2018-09-22T03:00:09.869Z,99.90
2018-09-22T03:02:39.164Z,99.90
2018-09-22T03:05:08.335Z,99.90
2018-09-22T03:07:37.443Z,99.90
2018-09-22T03:10:07.244Z,99.90
2018-09-22T03:12:36.980Z,99.90
2018-09-22T03:15:06.670Z,99.90
2018-09-22T03:17:36.122Z,99.90
2018-09-22T03:20:05.290Z,99.90
2018-09-22T03:22:34.603Z,99.90
2018-09-22T03:25:03.723Z,99.90
2018-09-22T03:27:33.115Z,99.90
2018-09-22T03:30:03.047Z,99.90
2018-09-22T03:32:32.183Z,99.90
2018-09-22T03:35:01.307Z,99.90
2018-09-22T03:37:30.389Z,99.90
2018-09-22T03:39:59.483Z,99.90
2018-09-22T03:42:28.825Z,99.90
2018-09-22T03:44:57.954Z,99.90
2018-09-22T03:47:27.098Z,99.90
2018-09-22T03:49:56.492Z,99.90
2018-09-22T03:52:25.626Z,99.90
2018-09-22T03:54:54.729Z,99.90
2018-09-22T03:57:23.827Z,99.90
2018-09-22T03:59:52.919Z,99.90
2018-09-22T04:02:22.123Z,99.90
2018-09-22T04:04:51.244Z,99.90
2018-09-22T04:07:20.365Z,99.90
2018-09-22T04:09:49.459Z,99.90
2018-09-22T04:12:18.571Z,99.90
2018-09-22T04:14:47.670Z,99.90
2018-09-22T04:17:16.781Z,99.90
2018-09-22T04:19:45.876Z,99.90
2018-09-22T04:22:15.054Z,99.90
2018-09-22T04:24:44.199Z,99.90
2018-09-22T04:27:13.297Z,99.90
2018-09-22T04:29:42.615Z,99.90
2018-09-22T04:32:11.757Z,99.90
2018-09-22T04:34:40.871Z,99.90
2018-09-22T04:37:10.171Z,99.90
2018-09-22T04:39:39.279Z,99.90
2018-09-22T04:42:08.443Z,99.90
2018-09-22T04:44:37.512Z,99.90
2018-09-22T04:47:06.626Z,99.90
2018-09-22T04:49:36.297Z,99.90
2018-09-22T04:52:05.415Z,99.90
2018-09-22T04:54:34.483Z,99.90
2018-09-22T04:57:03.590Z,99.90
2018-09-22T04:59:32.696Z,99.90
2018-09-22T05:02:01.899Z,99.90
2018-09-22T05:04:30.982Z,99.90
2018-09-22T05:07:00.064Z,99.90
2018-09-22T05:09:29.160Z,99.90
2018-09-22T05:11:58.358Z,99.90
2018-09-22T05:14:27.452Z,99.90
2018-09-22T05:16:56.557Z,99.90
2018-09-22T05:19:25.675Z,99.90
2018-09-22T05:21:55.053Z,99.90
2018-09-22T05:24:24.140Z,99.90
2018-09-22T05:26:53.211Z,99.90
2018-09-22T05:29:22.313Z,99.90
2018-09-22T05:31:51.418Z,99.90
2018-09-22T05:34:20.524Z,99.90
2018-09-22T05:36:49.637Z,99.90
2018-09-22T05:39:18.743Z,99.90
2018-09-22T05:41:47.911Z,99.90
2018-09-22T05:44:16.967Z,99.90
2018-09-22T05:46:46.029Z,99.90
2018-09-22T05:49:15.125Z,99.90
2018-09-22T05:51:44.237Z,99.90
2018-09-22T05:54:13.330Z,99.90
2018-09-22T05:56:42.411Z,99.90
2018-09-22T05:59:11.678Z,99.90
2018-09-22T06:01:40.780Z,99.90
2018-09-22T06:04:09.855Z,99.90
2018-09-22T06:06:38.939Z,99.90
2018-09-22T06:09:09.462Z,99.90
2018-09-22T06:11:38.522Z,99.90
2018-09-22T06:14:07.636Z,99.90
2018-09-22T06:16:36.698Z,99.90
2018-09-22T06:19:06.249Z,99.90
2018-09-22T06:21:35.404Z,99.90
2018-09-22T06:24:04.518Z,99.90
2018-09-22T06:26:33.708Z,99.90
2018-09-22T06:29:02.795Z,99.90
2018-09-22T06:31:31.887Z,99.90
2018-09-22T06:34:00.979Z,99.90
2018-09-22T06:36:30.083Z,99.90
2018-09-22T06:38:59.190Z,99.90
2018-09-22T06:41:28.344Z,99.90
2018-09-22T06:43:57.457Z,99.90
2018-09-22T06:46:26.680Z,99.90
2018-09-22T06:48:55.799Z,99.90
2018-09-22T06:51:24.933Z,99.90
2018-09-22T06:53:54.224Z,99.90
2018-09-22T06:56:23.359Z,99.90
2018-09-22T06:58:52.533Z,99.90
2018-09-22T07:01:21.738Z,99.90
2018-09-22T07:03:51.047Z,99.90
2018-09-22T07:06:20.223Z,99.90
2018-09-22T07:08:49.316Z,99.90
2018-09-22T07:11:18.527Z,99.90
2018-09-22T07:13:47.698Z,99.90
2018-09-22T07:16:17.360Z,99.90
2018-09-22T07:18:46.630Z,99.90
2018-09-22T07:21:16.997Z,99.90
2018-09-22T07:23:46.112Z,99.90
2018-09-22T07:26:15.236Z,99.90
2018-09-22T07:28:44.368Z,99.90
2018-09-22T07:31:13.967Z,99.90
2018-09-22T07:33:43.116Z,99.90
2018-09-22T07:36:12.644Z,99.90
2018-09-22T07:38:41.820Z,99.90
2018-09-22T07:41:11.101Z,99.90
2018-09-22T07:43:40.723Z,99.90
2018-09-22T07:46:11.250Z,99.90
2018-09-22T07:48:41.327Z,99.90
2018-09-22T07:51:11.628Z,99.90
2018-09-22T07:53:40.771Z,99.90
2018-09-22T07:56:09.883Z,99.90
2018-09-22T07:58:38.983Z,99.90
2018-09-22T08:01:08.527Z,99.90
2018-09-22T08:03:37.658Z,99.90
2018-09-22T08:06:06.779Z,99.90
2018-09-22T08:08:36.118Z,99.90
2018-09-22T08:11:05.349Z,99.90
2018-09-22T08:13:35.898Z,99.90
2018-09-22T08:16:05.359Z,99.90
2018-09-22T08:18:34.496Z,98.70
2018-09-22T08:21:03.678Z,99.50
2018-09-22T08:23:33.131Z,97.70
2018-09-22T08:26:02.272Z,99.30
2018-09-22T08:28:32.124Z,99.90
2018-09-22T08:31:02.161Z,99.90
2018-09-22T08:33:31.459Z,99.90
2018-09-22T08:36:01.242Z,99.90
2018-09-22T08:38:30.406Z,99.90
2018-09-22T08:40:59.589Z,99.90
2018-09-22T08:43:28.714Z,99.90
2018-09-22T08:45:57.986Z,99.90
2018-09-22T08:48:27.096Z,98.00
2018-09-22T08:50:56.443Z,99.40
2018-09-22T08:53:25.523Z,99.90
2018-09-22T08:55:54.595Z,99.90
2018-09-22T08:58:23.671Z,99.30
2018-09-22T09:00:52.787Z,98.10
2018-09-22T09:03:21.892Z,99.10
2018-09-22T09:05:51.032Z,98.50
2018-09-22T09:08:20.090Z,99.10
2018-09-22T09:10:49.343Z,99.90
2018-09-22T09:13:18.507Z,99.90
2018-09-22T09:15:47.588Z,99.30
2018-09-22T09:18:16.676Z,98.60
2018-09-22T09:20:45.826Z,97.40
2018-09-22T09:23:15.597Z,96.50
2018-09-22T09:25:44.718Z,95.00
2018-09-22T09:28:16.427Z,93.50
2018-09-22T09:30:45.562Z,94.30
2018-09-22T09:33:14.660Z,92.90
2018-09-22T09:35:43.753Z,92.40
2018-09-22T09:38:13.516Z,90.30
2018-09-22T09:40:42.606Z,88.80
2018-09-22T09:43:11.811Z,86.90
2018-09-22T09:45:41.549Z,83.20
2018-09-22T09:48:10.818Z,86.70
2018-09-22T09:50:40.307Z,89.20
2018-09-22T09:53:09.518Z,87.50
2018-09-22T09:55:38.905Z,84.40
2018-09-22T09:58:08.039Z,85.00
2018-09-22T10:00:42.683Z,84.10
2018-09-22T10:03:12.287Z,83.90
2018-09-22T10:05:41.928Z,84.50
2018-09-22T10:08:11.022Z,85.60
2018-09-22T10:10:40.208Z,87.70
2018-09-22T10:13:09.319Z,90.40
2018-09-22T10:15:42.023Z,86.60
2018-09-22T10:18:11.335Z,84.60
2018-09-22T10:20:40.501Z,90.00
2018-09-22T10:23:09.578Z,84.60
2018-09-22T10:25:38.722Z,83.70
2018-09-22T10:28:07.896Z,86.20
2018-09-22T10:30:37.019Z,85.40
2018-09-22T10:33:06.160Z,83.90
2018-09-22T10:35:35.226Z,77.80
2018-09-22T10:38:04.310Z,72.20
2018-09-22T10:40:33.540Z,70.50
2018-09-22T10:43:02.850Z,73.20
2018-09-22T10:45:32.067Z,72.00
2018-09-22T10:48:01.257Z,71.60
2018-09-22T10:50:30.521Z,71.10
2018-09-22T10:52:59.865Z,66.30
2018-09-22T10:55:29.526Z,67.00
2018-09-22T10:58:03.737Z,66.30
2018-09-22T11:00:33.119Z,65.60
2018-09-22T11:03:02.300Z,67.00
2018-09-22T11:05:31.641Z,65.20
2018-09-22T11:08:02.523Z,64.30
2018-09-22T11:10:32.483Z,61.60
2018-09-22T11:13:02.267Z,59.90
2018-09-22T11:15:33.318Z,60.00
2018-09-22T11:18:02.440Z,60.50
2018-09-22T11:20:31.534Z,59.90
2018-09-22T11:23:00.595Z,58.20
2018-09-22T11:25:29.715Z,58.30
2018-09-22T11:27:58.924Z,57.20
2018-09-22T11:30:28.053Z,57.70
2018-09-22T11:32:57.118Z,55.70
2018-09-22T11:35:26.259Z,54.50
2018-09-22T11:37:55.311Z,55.10
2018-09-22T11:40:24.398Z,53.90
2018-09-22T11:42:53.478Z,52.30
2018-09-22T11:45:22.560Z,49.80
2018-09-22T11:47:51.611Z,50.40
2018-09-22T11:50:20.695Z,50.70
2018-09-22T11:52:50.020Z,49.10
2018-09-22T11:55:19.099Z,49.00
2018-09-22T11:57:48.146Z,48.80
2018-09-22T12:00:18.283Z,49.40
2018-09-22T12:02:47.357Z,49.50
2018-09-22T12:05:16.491Z,49.10
2018-09-22T12:07:45.567Z,47.90
2018-09-22T12:10:14.775Z,46.90
2018-09-22T12:12:44.000Z,46.20
2018-09-22T12:15:13.092Z,47.10
2018-09-22T12:17:42.172Z,47.00
2018-09-22T12:20:11.312Z,46.60
2018-09-22T12:22:40.403Z,45.10
2018-09-22T12:25:09.479Z,45.40
2018-09-22T12:27:38.580Z,45.20
2018-09-22T12:30:08.439Z,45.70
2018-09-22T12:32:37.535Z,46.00
2018-09-22T12:35:06.647Z,46.70
2018-09-22T12:37:35.999Z,45.80
2018-09-22T12:40:05.318Z,45.90
2018-09-22T12:42:34.396Z,44.80
2018-09-22T12:45:03.487Z,45.10
2018-09-22T12:47:32.659Z,42.50
2018-09-22T12:50:01.723Z,43.20
2018-09-22T12:52:30.834Z,44.10
2018-09-22T12:54:59.908Z,43.70
2018-09-22T12:57:29.025Z,45.10
2018-09-22T12:59:58.119Z,44.10
2018-09-22T13:02:28.835Z,42.20
2018-09-22T13:04:57.983Z,42.90
2018-09-22T13:07:27.075Z,41.60
2018-09-22T13:09:56.259Z,40.90
2018-09-22T13:12:25.370Z,43.50
2018-09-22T13:14:54.467Z,42.20
2018-09-22T13:17:23.633Z,42.50
2018-09-22T13:19:52.830Z,43.20
2018-09-22T13:22:21.930Z,41.80
2018-09-22T13:24:51.016Z,44.10
2018-09-22T13:27:20.113Z,42.80
2018-09-22T13:29:49.174Z,43.30
2018-09-22T13:32:18.271Z,45.90
2018-09-22T13:34:47.355Z,45.70
2018-09-22T13:37:17.024Z,46.60
2018-09-22T13:39:46.938Z,43.40
2018-09-22T13:42:16.968Z,44.40
2018-09-22T13:44:46.979Z,44.30
2018-09-22T13:47:16.143Z,43.20
2018-09-22T13:49:45.455Z,42.20
2018-09-22T13:52:15.095Z,42.50
2018-09-22T13:54:44.899Z,45.30
2018-09-22T13:57:15.116Z,45.60
2018-09-22T13:59:44.332Z,44.90
2018-09-22T14:02:13.430Z,43.90
2018-09-22T14:04:42.522Z,44.10
2018-09-22T14:07:11.752Z,44.80
2018-09-22T14:09:41.730Z,45.60
2018-09-22T14:12:11.295Z,45.00
2018-09-22T14:14:42.727Z,45.80
2018-09-22T14:17:12.026Z,45.80
2018-09-22T14:19:41.174Z,45.10
2018-09-22T14:22:10.311Z,46.20
2018-09-22T14:24:39.391Z,46.50
2018-09-22T14:27:08.661Z,46.60
2018-09-22T14:29:37.806Z,46.60
2018-09-22T14:32:07.211Z,46.90
2018-09-22T14:34:36.431Z,46.50
2018-09-22T14:37:05.515Z,46.50
2018-09-22T14:39:41.229Z,46.80
2018-09-22T14:42:10.300Z,47.80
2018-09-22T14:44:39.383Z,48.20
2018-09-22T14:47:08.454Z,47.70
2018-09-22T14:49:37.674Z,49.30
2018-09-22T14:52:06.858Z,49.30
2018-09-22T14:54:36.034Z,48.90
2018-09-22T14:57:05.100Z,49.50
2018-09-22T14:59:34.196Z,49.00
2018-09-22T15:02:03.271Z,48.10
2018-09-22T15:04:32.366Z,48.20
2018-09-22T15:07:01.480Z,47.90
2018-09-22T15:09:30.589Z,48.10
2018-09-22T15:11:59.675Z,47.50
2018-09-22T15:14:28.888Z,48.30
2018-09-22T15:16:58.175Z,48.70
2018-09-22T15:19:27.472Z,49.80
2018-09-22T15:21:56.526Z,48.70
2018-09-22T15:24:25.623Z,48.80
2018-09-22T15:26:54.729Z,47.80
2018-09-22T15:29:23.871Z,48.60
2018-09-22T15:31:52.931Z,49.40
2018-09-22T15:34:22.032Z,51.40
2018-09-22T15:36:51.172Z,51.40
2018-09-22T15:39:20.294Z,50.70
2018-09-22T15:41:49.358Z,51.10
2018-09-22T15:44:18.482Z,51.40
2018-09-22T15:46:47.583Z,52.40
2018-09-22T15:49:16.679Z,52.40
2018-09-22T15:51:45.776Z,51.60
2018-09-22T15:54:14.891Z,53.60
2018-09-22T15:56:43.948Z,53.20
2018-09-22T15:59:13.342Z,53.80
2018-09-22T16:01:42.442Z,54.10
2018-09-22T16:04:11.520Z,54.50
2018-09-22T16:06:40.645Z,54.30
2018-09-22T16:09:10.100Z,54.70
2018-09-22T16:11:39.190Z,54.00
2018-09-22T16:14:08.250Z,54.50
2018-09-22T16:16:37.359Z,54.10
2018-09-22T16:19:06.439Z,55.00
2018-09-22T16:21:35.564Z,56.00
2018-09-22T16:24:04.743Z,57.40
2018-09-22T16:26:33.832Z,58.30
2018-09-22T16:29:02.913Z,59.00
2018-09-22T16:31:32.041Z,59.10
2018-09-22T16:34:01.130Z,59.10
2018-09-22T16:36:30.221Z,59.20
2018-09-22T16:38:59.616Z,60.00
2018-09-22T16:41:28.730Z,60.60
2018-09-22T16:43:57.794Z,60.60
2018-09-22T16:46:26.879Z,61.20
2018-09-22T16:48:56.004Z,62.80
2018-09-22T16:51:25.189Z,64.50
2018-09-22T16:53:54.254Z,64.40
2018-09-22T16:56:23.696Z,65.20
2018-09-22T16:58:52.768Z,67.30
2018-09-22T17:01:21.854Z,67.60
2018-09-22T17:03:50.942Z,68.60
2018-09-22T17:06:20.181Z,69.50
2018-09-22T17:08:49.873Z,69.90
2018-09-22T17:11:19.022Z,70.90
2018-09-22T17:13:48.080Z,71.20
2018-09-22T17:16:17.263Z,74.30
2018-09-22T17:18:46.372Z,73.60
2018-09-22T17:21:15.439Z,75.20
2018-09-22T17:23:44.539Z,78.10
2018-09-22T17:26:13.611Z,79.20
2018-09-22T17:28:42.795Z,80.60
2018-09-22T17:31:11.946Z,82.00
2018-09-22T17:33:41.067Z,83.50
2018-09-22T17:36:10.171Z,84.80
2018-09-22T17:38:39.259Z,82.50
2018-09-22T17:41:08.518Z,86.70
2018-09-22T17:43:38.035Z,87.30
2018-09-22T17:46:07.427Z,87.90
2018-09-22T17:48:36.671Z,93.60
2018-09-22T17:51:06.202Z,94.60
2018-09-22T17:53:35.379Z,95.00
2018-09-22T17:56:04.508Z,95.30
2018-09-22T17:58:33.785Z,96.30
2018-09-22T18:01:04.083Z,96.80
2018-09-22T18:03:36.457Z,98.70
2018-09-22T18:06:05.647Z,99.90
2018-09-22T18:08:34.823Z,99.90
2018-09-22T18:11:04.159Z,99.90
2018-09-22T18:13:33.445Z,99.90
2018-09-22T18:16:03.395Z,99.90
2018-09-22T18:18:32.491Z,99.90
2018-09-22T18:21:01.583Z,99.90
2018-09-22T18:23:30.722Z,99.90
2018-09-22T18:25:59.779Z,99.90
2018-09-22T18:28:29.080Z,99.90
2018-09-22T18:30:58.142Z,99.90
2018-09-22T18:33:27.258Z,99.90
2018-09-22T18:35:56.330Z,99.90
2018-09-22T18:38:25.491Z,99.90
2018-09-22T18:40:54.624Z,99.90
2018-09-22T18:43:23.712Z,99.90
2018-09-22T18:45:53.127Z,99.90
2018-09-22T18:48:22.898Z,99.90
2018-09-22T18:50:52.015Z,99.90
2018-09-22T18:53:21.119Z,99.90
2018-09-22T18:55:50.243Z,99.90
2018-09-22T18:58:19.363Z,99.90
2018-09-22T19:00:48.430Z,99.90
2018-09-22T19:03:17.547Z,99.90
2018-09-22T19:05:46.687Z,99.90
2018-09-22T19:08:15.855Z,99.90
2018-09-22T19:10:45.571Z,99.90
2018-09-22T19:13:18.495Z,99.90
2018-09-22T19:15:49.859Z,99.90
2018-09-22T19:18:26.980Z,99.90
2018-09-22T19:21:07.923Z,99.90
2018-09-22T19:23:38.998Z,99.90
2018-09-22T19:26:14.944Z,99.90
2018-09-22T19:29:04.722Z,99.90
2018-09-22T19:31:40.952Z,99.90
2018-09-22T19:34:13.628Z,99.90
2018-09-22T19:36:49.187Z,99.90
2018-09-22T19:39:51.960Z,99.90
2018-09-22T19:42:32.828Z,99.90
2018-09-22T19:45:06.139Z,99.90
2018-09-22T19:47:46.785Z,99.90
2018-09-22T19:50:22.923Z,99.90
2018-09-22T19:52:52.852Z,99.90
2018-09-22T19:55:22.083Z,99.90
2018-09-22T19:57:51.495Z,99.90
2018-09-22T20:00:20.668Z,99.90
2018-09-22T20:02:49.950Z,99.90
2018-09-22T20:05:19.399Z,99.90
2018-09-22T20:07:51.255Z,99.90
2018-09-22T20:10:20.487Z,99.90
2018-09-22T20:12:52.163Z,99.90
2018-09-22T20:15:21.348Z,99.90
2018-09-22T20:17:50.668Z,99.90
2018-09-22T20:20:19.950Z,99.90
2018-09-22T20:22:49.187Z,99.90
2018-09-22T20:25:18.345Z,99.90
2018-09-22T20:27:47.533Z,99.90
2018-09-22T20:30:16.703Z,99.90
2018-09-22T20:32:45.804Z,99.90
2018-09-22T20:35:14.934Z,99.90
2018-09-22T20:37:44.013Z,99.90
2018-09-22T20:40:13.326Z,99.90
2018-09-22T20:42:42.724Z,99.90
2018-09-22T20:45:11.975Z,99.90
2018-09-22T20:47:41.232Z,99.90
2018-09-22T20:50:10.540Z,99.90
2018-09-22T20:52:39.744Z,99.90
2018-09-22T20:55:08.911Z,99.90
2018-09-22T20:57:38.146Z,99.90
2018-09-22T21:00:08.618Z,99.90
2018-09-22T21:02:38.059Z,99.90
2018-09-22T21:05:07.923Z,99.90
2018-09-22T21:07:37.844Z,99.90
2018-09-22T21:10:07.967Z,99.90
2018-09-22T21:12:37.634Z,99.90
2018-09-22T21:15:07.090Z,99.90
2018-09-22T21:17:36.948Z,99.90
2018-09-22T21:20:06.191Z,99.90
2018-09-22T21:22:35.298Z,99.90
2018-09-22T21:25:04.439Z,99.90
2018-09-22T21:27:33.680Z,99.90
2018-09-22T21:30:03.105Z,99.90
2018-09-22T21:32:32.266Z,99.90
2018-09-22T21:35:01.459Z,99.90
2018-09-22T21:37:30.825Z,99.90
2018-09-22T21:40:00.600Z,99.90
2018-09-22T21:42:29.991Z,99.90
2018-09-22T21:44:59.086Z,99.90
2018-09-22T21:47:28.291Z,99.90
2018-09-22T21:49:58.010Z,99.90
2018-09-22T21:52:27.118Z,99.90
2018-09-22T21:54:56.186Z,99.90
2018-09-22T21:57:25.336Z,99.90
2018-09-22T21:59:54.411Z,99.90
2018-09-22T22:02:23.515Z,99.90
2018-09-22T22:04:53.195Z,99.90
2018-09-22T22:07:22.463Z,99.90
2018-09-22T22:09:52.651Z,99.90
2018-09-22T22:12:21.962Z,99.90
2018-09-22T22:14:52.275Z,99.90
2018-09-22T22:17:21.427Z,99.90
2018-09-22T22:19:50.689Z,99.90
2018-09-22T22:22:19.908Z,99.90
2018-09-22T22:24:49.541Z,99.90
2018-09-22T22:27:18.694Z,99.90
2018-09-22T22:29:48.174Z,99.90
2018-09-22T22:32:17.709Z,99.90
2018-09-22T22:34:46.826Z,99.90
2018-09-22T22:37:16.017Z,99.90
2018-09-22T22:39:45.163Z,99.90
2018-09-22T22:42:14.342Z,99.90
2018-09-22T22:44:43.492Z,99.90
2018-09-22T22:47:12.618Z,99.90
2018-09-22T22:49:41.830Z,99.90
2018-09-22T22:52:10.988Z,99.90
2018-09-22T22:54:40.083Z,99.90
2018-09-22T22:57:09.418Z,99.90
2018-09-22T22:59:38.503Z,99.90
2018-09-22T23:04:43.495Z,99.90
2018-09-22T23:07:14.171Z,99.90
2018-09-22T23:09:43.263Z,99.90
2018-09-22T23:12:12.430Z,99.90
2018-09-22T23:14:41.647Z,99.90
2018-09-22T23:17:11.033Z,99.90
2018-09-22T23:19:40.247Z,99.90
2018-09-22T23:22:09.343Z,99.90
2018-09-22T23:24:38.467Z,99.90
2018-09-22T23:27:07.584Z,99.90
2018-09-22T23:29:36.875Z,99.90
2018-09-22T23:32:06.060Z,99.90
2018-09-22T23:34:35.371Z,99.90
2018-09-22T23:37:04.642Z,99.90
2018-09-22T23:39:33.860Z,99.90
2018-09-22T23:42:02.964Z,99.90
2018-09-22T23:44:32.075Z,99.90
2018-09-22T23:47:01.182Z,99.90
2018-09-22T23:49:31.088Z,99.90
2018-09-22T23:52:00.399Z,99.90
2018-09-22T23:54:29.494Z,99.90
2018-09-22T23:56:58.607Z,99.90
2018-09-22T23:59:28.286Z,99.90
